Time;durP1;ratioP1;P1;durP2;ratioP2;P2;SDS_P1;SDS_P2;PMS_P1;PMS_P2;Temp;Humidity;BMP_temperature;BMP_pressure;BME280_temperature;BME280_humidity;BME280_pressure;Samples;Min_cycle;Max_cycle;Signal;HPM_P1;HPM_P2
2024/01/15 00:03:26;;;;;;;9.57;7.53;;;;;;;0.17;100.00;99150.56;9993429;29;20048;-73
2024/01/15 00:08:23;;;;;;;9.05;7.88;;;;;;;0.16;100.00;99150.84;9994716;29;20036;-73
2024/01/15 00:13:19;;;;;;;14.65;8.45;;;;;;;0.26;100.00;99139.19;9991131;29;20048;-74
2024/01/15 00:18:16;;;;;;;12.65;7.82;;;;;;;0.22;100.00;99143.53;9994718;29;20402;-73
2024/01/15 00:23:12;;;;;;;10.63;8.13;;;;;;;0.14;100.00;99155.72;9995095;29;20052;-72
2024/01/15 00:28:09;;;;;;;10.80;7.53;;;;;;;0.12;100.00;99156.00;9993442;29;20075;-73
2024/01/15 00:33:05;;;;;;;8.32;7.00;;;;;;;0.15;100.00;99128.56;10006767;29;20056;-73
2024/01/15 00:38:02;;;;;;;9.23;7.70;;;;;;;0.15;100.00;99117.81;9968936;29;20650;-73
2024/01/15 00:42:59;;;;;;;8.57;7.65;;;;;;;0.20;100.00;99103.50;9975378;29;20056;-73
2024/01/15 00:47:56;;;;;;;10.57;8.13;;;;;;;0.26;100.00;99088.13;9998849;29;20051;-73
2024/01/15 00:52:53;;;;;;;9.43;8.35;;;;;;;0.23;100.00;99086.00;9992162;29;20059;-74
2024/01/15 00:57:49;;;;;;;10.15;8.18;;;;;;;0.23;100.00;99086.78;9989363;29;20523;-73
2024/01/15 01:02:46;;;;;;;14.15;8.13;;;;;;;-0.17;100.00;99088.09;9999129;29;20075;-72
2024/01/15 01:07:43;;;;;;;16.55;8.27;;;;;;;-0.12;100.00;99061.97;9991672;29;20072;-73
2024/01/15 01:12:39;;;;;;;8.40;7.65;;;;;;;0.00;100.00;99050.81;9995862;29;20052;-73
2024/01/15 01:17:36;;;;;;;15.68;7.53;;;;;;;0.07;100.00;99056.66;10006042;29;20076;-74
2024/01/15 01:22:33;;;;;;;12.57;8.23;;;;;;;0.12;100.00;99040.44;9987996;29;20040;-73
2024/01/15 01:27:29;;;;;;;15.55;8.23;;;;;;;0.26;100.00;99037.03;9973771;29;20068;-74
2024/01/15 01:32:26;;;;;;;14.07;8.27;;;;;;;0.29;100.00;99031.09;9969852;29;20076;-73
2024/01/15 01:37:23;;;;;;;11.65;8.32;;;;;;;0.29;100.00;99029.19;10008588;29;20504;-74
2024/01/15 01:42:19;;;;;;;10.60;6.63;;;;;;;0.32;100.00;99046.63;9991129;29;20429;-73
2024/01/15 01:47:16;;;;;;;12.75;7.35;;;;;;;0.41;100.00;99051.03;10004834;29;20052;-73
2024/01/15 01:52:13;;;;;;;13.63;7.88;;;;;;;0.53;100.00;99060.56;9986577;29;20512;-73
2024/01/15 01:57:11;;;;;;;7.57;6.97;;;;;;;0.52;100.00;99040.94;9990010;29;20075;-73
2024/01/15 02:07:20;;;;;;;15.05;7.55;;;;;;;0.52;100.00;99062.47;10823251;23;20607;-74
2024/01/15 02:12:17;;;;;;;8.63;7.68;;;;;;;0.36;100.00;99069.16;10128911;28;20057;-74
2024/01/15 02:17:13;;;;;;;8.27;7.07;;;;;;;-0.07;100.00;99056.56;10172050;28;20052;-73
2024/01/15 02:22:10;;;;;;;11.85;7.45;;;;;;;-0.06;100.00;99041.22;10192219;28;20038;-74
2024/01/15 02:27:07;;;;;;;13.88;8.32;;;;;;;-0.24;100.00;99029.34;10190681;28;20080;-73
2024/01/15 02:32:08;;;;;;;11.45;7.57;;;;;;;-0.22;100.00;99017.22;10192140;28;20575;-73
2024/01/15 02:37:04;;;;;;;8.40;7.23;;;;;;;0.29;100.00;99010.38;10190613;28;20104;-73
2024/01/15 02:42:01;;;;;;;9.60;7.75;;;;;;;0.25;100.00;99008.56;10190846;28;20041;-73
2024/01/15 02:46:57;;;;;;;17.38;8.07;;;;;;;0.27;100.00;98988.34;10190495;28;20049;-74
2024/01/15 02:51:54;;;;;;;21.27;8.43;;;;;;;0.34;100.00;98983.41;10198852;28;20049;-74
2024/01/15 02:56:50;;;;;;;17.23;8.02;;;;;;;0.43;100.00;98985.44;10198507;28;20042;-74
2024/01/15 03:01:47;;;;;;;8.40;7.60;;;;;;;0.48;100.00;98980.75;10198649;28;20109;-74
2024/01/15 03:06:43;;;;;;;7.45;6.85;;;;;;;0.44;100.00;98977.06;10195398;28;20633;-75
2024/01/15 03:11:40;;;;;;;17.33;7.93;;;;;;;0.38;100.00;98975.56;10196947;28;20077;-74
2024/01/15 03:16:37;;;;;;;14.15;7.90;;;;;;;0.47;100.00;98994.53;10185020;28;20054;-74
2024/01/15 03:21:33;;;;;;;13.57;8.43;;;;;;;0.50;100.00;98994.72;10197630;28;20412;-74
2024/01/15 03:26:30;;;;;;;12.82;8.20;;;;;;;0.50;100.00;98997.41;10197348;28;20412;-72
2024/01/15 03:31:26;;;;;;;9.10;8.27;;;;;;;0.45;100.00;99005.56;10189097;28;20496;-75
2024/01/15 03:36:23;;;;;;;13.57;8.95;;;;;;;0.44;100.00;99006.63;10197166;28;20138;-75
2024/01/15 03:41:20;;;;;;;19.15;10.43;;;;;;;0.38;100.00;99010.50;10196873;28;20397;-74
2024/01/15 03:46:16;;;;;;;13.02;8.40;;;;;;;0.38;100.00;99002.44;10194808;28;20497;-74
2024/01/15 03:51:15;;;;;;;15.75;8.98;;;;;;;0.39;100.00;99009.41;10192856;28;20046;-75
2024/01/15 03:56:11;;;;;;;13.13;8.93;;;;;;;0.44;100.00;99036.22;10195575;28;20118;-75
2024/01/15 04:01:12;;;;;;;20.48;9.32;;;;;;;0.48;100.00;99034.53;10195466;28;20053;-74
2024/01/15 04:06:08;;;;;;;13.15;9.55;;;;;;;0.39;100.00;99042.47;10195446;28;20042;-74
2024/01/15 04:11:05;;;;;;;9.77;8.88;;;;;;;0.35;100.00;99046.06;10193212;28;20054;-73
2024/01/15 04:16:01;;;;;;;14.23;9.55;;;;;;;0.39;100.00;99036.28;10195344;28;20061;-74
2024/01/15 04:20:59;;;;;;;19.08;9.15;;;;;;;0.59;100.00;99057.50;10194897;28;20115;-75
2024/01/15 04:25:56;;;;;;;11.02;8.48;;;;;;;0.46;100.00;99050.16;10195481;28;20041;-75
2024/01/15 04:30:52;;;;;;;13.75;9.90;;;;;;;0.46;100.00;99069.00;10195159;28;20044;-75
2024/01/15 04:35:49;;;;;;;16.83;8.80;;;;;;;0.52;100.00;99067.06;10189809;28;20042;-74
2024/01/15 04:40:45;;;;;;;20.08;9.73;;;;;;;0.56;100.00;99082.31;10187182;28;20053;-74
2024/01/15 04:45:42;;;;;;;19.85;9.32;;;;;;;0.70;100.00;99087.75;10194928;28;20053;-74
2024/01/15 04:50:39;;;;;;;12.40;8.60;;;;;;;0.73;100.00;99094.44;10193537;28;20046;-74
2024/01/15 04:55:35;;;;;;;20.90;9.95;;;;;;;0.68;100.00;99102.59;10194491;28;20543;-75
2024/01/15 05:00:31;;;;;;;26.25;9.40;;;;;;;0.67;100.00;99103.66;10192878;28;20052;-74
2024/01/15 05:05:28;;;;;;;20.75;9.07;;;;;;;0.66;100.00;99110.16;10193177;28;20038;-75
2024/01/15 05:10:25;;;;;;;24.05;9.30;;;;;;;0.67;100.00;99106.34;10193830;28;20046;-75
2024/01/15 05:15:21;;;;;;;19.77;9.18;;;;;;;0.67;100.00;99107.16;10193357;28;20141;-74
2024/01/15 05:20:18;;;;;;;25.80;9.90;;;;;;;0.65;100.00;99108.53;10185614;28;20048;-74
2024/01/15 05:25:14;;;;;;;22.83;9.98;;;;;;;0.55;100.00;99110.28;10192777;28;20042;-74
2024/01/15 05:30:11;;;;;;;18.92;10.10;;;;;;;0.53;100.00;99111.66;10193551;28;20449;-74
2024/01/15 05:35:08;;;;;;;17.80;10.45;;;;;;;0.52;100.00;99110.06;10187228;28;20108;-75
2024/01/15 05:40:05;;;;;;;17.50;10.45;;;;;;;0.61;100.00;99122.56;10190817;28;20046;-74
2024/01/15 05:45:04;;;;;;;14.85;10.85;;;;;;;0.56;100.00;99114.59;10192759;28;20464;-74
2024/01/15 05:50:01;;;;;;;18.17;9.98;;;;;;;0.52;100.00;99110.88;10190796;28;20104;-74
2024/01/15 05:54:58;;;;;;;12.73;10.48;;;;;;;0.61;100.00;99114.50;10152521;28;20051;-74
2024/01/15 05:59:55;;;;;;;19.00;10.13;;;;;;;0.61;100.00;99119.88;10191237;28;20088;-74
2024/01/15 06:04:51;;;;;;;17.70;10.45;;;;;;;0.54;100.00;99119.44;10191936;28;20074;-75
2024/01/15 06:09:48;;;;;;;18.17;10.48;;;;;;;0.57;100.00;99129.63;10191709;28;20046;-72
2024/01/15 06:14:44;;;;;;;16.10;10.77;;;;;;;0.53;100.00;99117.03;10191332;28;20056;-74
2024/01/15 06:19:41;;;;;;;23.08;10.73;;;;;;;0.52;100.00;99116.25;10192721;28;20111;-74
2024/01/15 06:24:37;;;;;;;12.35;10.60;;;;;;;0.53;100.00;99123.22;10194906;28;20050;-74
2024/01/15 06:29:38;;;;;;;22.85;11.43;;;;;;;0.62;100.00;99110.72;10200141;28;20081;-74
2024/01/15 06:34:34;;;;;;;22.83;12.13;;;;;;;0.68;100.00;99124.13;10199046;28;20562;-74
2024/01/15 06:39:31;;;;;;;19.45;11.10;;;;;;;0.63;100.00;99104.25;10198627;28;20112;-74
2024/01/15 06:44:27;;;;;;;18.65;11.45;;;;;;;0.64;100.00;99107.75;10198750;28;20146;-74
2024/01/15 06:49:24;;;;;;;12.20;10.88;;;;;;;0.63;100.00;99116.91;10199616;28;20037;-74
2024/01/15 06:54:20;;;;;;;15.55;10.73;;;;;;;0.70;100.00;99116.56;10198130;28;20042;-74
2024/01/15 06:59:17;;;;;;;18.48;10.75;;;;;;;0.79;100.00;99122.84;10199129;28;20056;-73
2024/01/15 07:04:15;;;;;;;12.73;10.82;;;;;;;0.81;100.00;99124.19;10197647;28;20477;-74
2024/01/15 07:09:12;;;;;;;19.17;10.13;;;;;;;0.83;100.00;99129.25;10197835;28;20125;-72
2024/01/15 07:14:09;;;;;;;13.60;10.25;;;;;;;0.80;100.00;99132.53;10197585;28;20040;-72
2024/01/15 07:19:06;;;;;;;15.82;8.98;;;;;;;0.82;100.00;99141.91;10197590;28;20058;-72
2024/01/15 07:24:02;;;;;;;16.65;8.32;;;;;;;0.88;100.00;99155.28;10197349;28;20038;-72
2024/01/15 07:28:59;;;;;;;13.85;9.00;;;;;;;0.92;100.00;99165.19;10194740;28;20054;-72
2024/01/15 07:33:55;;;;;;;16.85;7.65;;;;;;;1.00;100.00;99175.28;10193483;28;20567;-72
2024/01/15 07:38:52;;;;;;;15.00;7.47;;;;;;;0.98;100.00;99176.69;10193446;28;20045;-72
2024/01/15 07:43:48;;;;;;;8.38;7.00;;;;;;;1.02;100.00;99183.06;10191633;28;20046;-72
2024/01/15 07:48:45;;;;;;;13.95;5.75;;;;;;;1.03;100.00;99180.09;10196127;28;20050;-72
2024/01/15 07:53:42;;;;;;;13.02;6.78;;;;;;;0.97;100.00;99180.44;10196458;28;20045;-73
2024/01/15 07:58:38;;;;;;;9.80;6.85;;;;;;;0.96;100.00;99185.03;10196505;28;20402;-72
2024/01/15 08:03:35;;;;;;;12.13;7.50;;;;;;;1.01;100.00;99186.84;10196536;28;20145;-71
2024/01/15 08:08:31;;;;;;;8.25;6.40;;;;;;;1.04;100.00;99203.25;10196018;28;20160;-71
2024/01/15 08:13:28;;;;;;;10.23;6.45;;;;;;;1.08;100.00;99198.06;10196305;28;20464;-72
2024/01/15 08:18:25;;;;;;;9.52;6.43;;;;;;;1.14;100.00;99202.28;10188143;28;20088;-72
2024/01/15 08:23:22;;;;;;;14.90;6.93;;;;;;;1.10;100.00;99211.22;10195081;28;20088;-72
2024/01/15 08:28:18;;;;;;;19.48;7.05;;;;;;;1.14;100.00;99196.06;10195034;28;20042;-71
2024/01/15 08:33:15;;;;;;;7.22;6.20;;;;;;;1.14;100.00;99213.06;10195734;28;20045;-71
2024/01/15 08:38:19;;;;;;;14.50;6.95;;;;;;;1.10;100.00;99211.22;10194106;28;20042;-72
2024/01/15 08:43:15;;;;;;;13.32;7.10;;;;;;;1.16;100.00;99237.78;10195104;28;20092;-72
2024/01/15 08:48:12;;;;;;;14.38;6.20;;;;;;;1.17;100.00;99238.59;10193299;28;20133;-72
2024/01/15 08:53:08;;;;;;;10.80;6.85;;;;;;;1.02;100.00;99237.72;10194146;28;20104;-72
2024/01/15 08:58:06;;;;;;;13.77;7.30;;;;;;;0.94;100.00;99251.81;10194009;28;20037;-71
2024/01/15 09:03:02;;;;;;;10.60;8.32;;;;;;;0.86;100.00;99249.78;10194045;28;20038;-72
2024/01/15 09:07:59;;;;;;;10.18;9.27;;;;;;;0.75;100.00;99237.53;10189366;28;20516;-72
2024/01/15 09:12:56;;;;;;;14.90;8.95;;;;;;;0.75;100.00;99242.94;10193275;28;20049;-72
2024/01/15 09:17:52;;;;;;;11.52;9.40;;;;;;;0.66;100.00;99244.66;10194010;28;20045;-71
2024/01/15 09:22:49;;;;;;;9.77;9.07;;;;;;;0.66;100.00;99256.22;10193144;28;20081;-71
2024/01/15 09:27:46;;;;;;;15.18;8.98;;;;;;;0.61;100.00;99265.13;10192575;28;20042;-72
2024/01/15 09:32:42;;;;;;;10.45;9.48;;;;;;;0.43;100.00;99260.50;10193353;28;20072;-71
2024/01/15 09:37:39;;;;;;;13.95;11.07;;;;;;;0.30;100.00;99256.63;10192400;28;20462;-72
2024/01/15 09:42:44;;;;;;;13.43;10.73;;;;;;;0.10;100.00;99260.31;10192646;28;20132;-72
2024/01/15 09:47:42;;;;;;;15.75;9.20;;;;;;;-0.26;100.00;99247.19;10192819;28;20125;-71
2024/01/15 09:52:43;;;;;;;16.05;8.82;;;;;;;-0.06;100.00;99246.22;10192809;28;20456;-71
2024/01/15 09:57:39;;;;;;;12.45;8.30;;;;;;;0.04;100.00;99245.31;10190604;28;20053;-71
2024/01/15 10:02:36;;;;;;;12.75;8.73;;;;;;;0.06;100.00;99248.53;10192839;28;20078;-71
2024/01/15 10:07:35;;;;;;;12.45;10.40;;;;;;;0.06;100.00;99240.47;10191492;28;20057;-71
2024/01/15 10:12:32;;;;;;;21.75;9.77;;;;;;;0.12;100.00;99236.66;10191856;28;20173;-71
2024/01/15 10:17:30;;;;;;;14.07;9.13;;;;;;;0.18;100.00;99250.81;10191768;28;20096;-72
2024/01/15 10:22:27;;;;;;;11.02;8.27;;;;;;;0.26;100.00;99235.97;10192132;28;20060;-71
2024/01/15 10:27:23;;;;;;;11.25;9.25;;;;;;;0.31;100.00;99238.59;10191987;28;20042;-72
2024/01/15 10:32:23;;;;;;;10.02;9.20;;;;;;;0.39;100.00;99241.44;10191912;28;20056;-71
2024/01/15 10:37:20;;;;;;;10.77;9.68;;;;;;;0.49;100.00;99255.84;10190778;28;20042;-72
2024/01/15 10:42:18;;;;;;;10.80;9.65;;;;;;;0.57;100.00;99268.69;10192066;28;20049;-72
2024/01/15 10:47:15;;;;;;;9.68;8.98;;;;;;;0.55;100.00;99260.91;10185961;28;20046;-72
2024/01/15 10:52:11;;;;;;;12.45;9.73;;;;;;;0.55;100.00;99260.91;10182454;28;20053;-72
2024/01/15 10:57:08;;;;;;;9.25;8.45;;;;;;;0.52;100.00;99285.69;10190231;28;20115;-72
2024/01/15 11:02:05;;;;;;;10.50;9.63;;;;;;;0.50;100.00;99285.16;10191733;28;20041;-72
2024/01/15 11:07:03;;;;;;;10.88;9.82;;;;;;;0.40;100.00;99290.66;10190028;28;20121;-71
2024/01/15 11:12:10;;;;;;;10.32;9.38;;;;;;;0.38;100.00;99282.06;10197102;28;20068;-72
2024/01/15 11:17:07;;;;;;;9.65;8.95;;;;;;;0.43;100.00;99284.72;10196738;28;20467;-72
2024/01/15 11:22:05;;;;;;;11.65;10.80;;;;;;;0.54;100.00;99275.44;10197562;28;20045;-73
2024/01/15 11:27:03;;;;;;;10.75;9.88;;;;;;;0.56;100.00;99281.34;10197738;28;20049;-72
2024/01/15 11:32:01;;;;;;;10.15;9.30;;;;;;;0.68;100.00;99277.44;10197546;28;20081;-72
2024/01/15 11:37:02;;;;;;;12.60;9.88;;;;;;;0.55;100.00;99287.78;10197026;28;20050;-73
2024/01/15 11:42:01;;;;;;;10.23;9.43;;;;;;;0.54;100.00;99280.81;10196407;28;20137;-73
2024/01/15 11:47:03;;;;;;;10.20;9.30;;;;;;;0.65;100.00;99292.28;10197060;28;20481;-73
2024/01/15 11:52:01;;;;;;;10.60;9.45;;;;;;;0.63;100.00;99289.88;10196782;28;20122;-73
2024/01/15 11:57:03;;;;;;;10.10;9.40;;;;;;;0.72;100.00;99287.34;10195138;28;20111;-73
2024/01/15 12:02:00;;;;;;;10.13;9.43;;;;;;;0.74;100.00;99285.19;10195943;28;20055;-73
2024/01/15 12:06:57;;;;;;;9.35;8.70;;;;;;;0.42;100.00;99304.63;10196126;28;20129;-73
2024/01/15 12:12:07;;;;;;;11.00;9.88;;;;;;;0.50;100.00;99306.69;10196059;28;20046;-72
2024/01/15 12:17:04;;;;;;;13.02;9.45;;;;;;;0.56;100.00;99302.84;10196458;28;20049;-73
2024/01/15 12:22:01;;;;;;;9.40;8.63;;;;;;;0.46;100.00;99308.31;10194974;28;20416;-73
2024/01/15 12:26:58;;;;;;;10.95;10.02;;;;;;;0.50;100.00;99317.44;10194356;28;20046;-73
2024/01/15 12:31:55;;;;;;;11.20;10.07;;;;;;;0.48;100.00;99322.28;10194993;28;20050;-73
2024/01/15 12:36:52;;;;;;;10.93;10.05;;;;;;;0.55;100.00;99328.13;10195153;28;20046;-73
2024/01/15 12:41:48;;;;;;;15.10;10.30;;;;;;;0.40;100.00;99342.56;10195080;28;20052;-73
2024/01/15 12:46:45;;;;;;;10.82;9.82;;;;;;;0.50;100.00;99343.53;10194910;28;20049;-73
2024/01/15 12:51:43;;;;;;;12.13;10.77;;;;;;;0.56;100.00;99353.97;10194059;28;20042;-73
2024/01/15 12:56:39;;;;;;;11.68;10.98;;;;;;;0.56;100.00;99362.03;10194322;28;20042;-73
2024/01/15 13:01:36;;;;;;;11.73;10.82;;;;;;;0.57;100.00;99360.94;10193557;28;20448;-73
2024/01/15 13:06:32;;;;;;;11.45;10.55;;;;;;;0.54;100.00;99366.88;10192465;28;20050;-73
2024/01/15 13:11:29;;;;;;;12.57;11.38;;;;;;;0.53;100.00;99376.03;10194392;28;20052;-75
2024/01/15 13:16:29;;;;;;;11.70;10.57;;;;;;;0.58;100.00;99372.50;10192741;28;20060;-73
2024/01/15 13:21:25;;;;;;;14.05;10.90;;;;;;;0.57;100.00;99382.44;10185966;28;20412;-73
2024/01/15 13:26:22;;;;;;;11.15;10.20;;;;;;;0.42;100.00;99396.06;10192440;28;20042;-73
2024/01/15 13:31:18;;;;;;;11.25;10.40;;;;;;;0.51;100.00;99401.59;10193928;28;20050;-73
2024/01/15 13:36:15;;;;;;;11.52;10.57;;;;;;;0.43;100.00;99423.75;10191476;28;20045;-73
2024/01/15 13:41:11;;;;;;;11.90;10.75;;;;;;;0.34;100.00;99426.22;10193304;28;20132;-73
2024/01/15 13:46:08;;;;;;;12.20;11.00;;;;;;;0.44;100.00;99431.50;10191907;28;20045;-73
2024/01/15 13:51:04;;;;;;;11.05;10.25;;;;;;;0.35;100.00;99439.41;10192560;28;20046;-73
2024/01/15 13:56:01;;;;;;;10.77;9.88;;;;;;;0.41;100.00;99448.22;10191013;28;20049;-73
2024/01/15 14:00:57;;;;;;;10.32;9.63;;;;;;;0.39;100.00;99455.75;10192966;28;20046;-74
2024/01/15 14:05:54;;;;;;;10.07;9.20;;;;;;;0.20;100.00;99444.88;10191627;28;20454;-73
2024/01/15 14:10:51;;;;;;;12.90;10.40;;;;;;;0.25;100.00;99455.59;10192222;28;20571;-73
2024/01/15 14:15:49;;;;;;;11.95;10.93;;;;;;;0.46;100.00;99466.19;10191948;28;20050;-73
2024/01/15 14:20:46;;;;;;;11.45;10.75;;;;;;;0.39;100.00;99470.00;10191294;28;20049;-73
2024/01/15 14:25:42;;;;;;;11.55;10.65;;;;;;;0.36;100.00;99478.63;10191649;28;20053;-73
2024/01/15 14:30:39;;;;;;;11.55;10.75;;;;;;;0.23;100.00;99487.31;10192128;28;20046;-73
2024/01/15 14:35:36;;;;;;;15.20;11.30;;;;;;;0.24;100.00;99491.63;10190299;28;20053;-73
2024/01/15 14:40:32;;;;;;;12.20;11.02;;;;;;;0.25;100.00;99497.81;10191977;28;20049;-73
2024/01/15 14:45:30;;;;;;;12.82;11.93;;;;;;;0.28;100.00;99508.00;10194413;28;20096;-73
2024/01/15 14:50:26;;;;;;;12.40;11.50;;;;;;;0.17;100.00;99502.69;10190715;28;20053;-72
2024/01/15 14:55:23;;;;;;;12.20;11.32;;;;;;;0.07;100.00;99508.16;10198790;28;20647;-73
2024/01/15 15:00:19;;;;;;;13.07;11.52;;;;;;;-0.07;100.00;99509.81;10198185;28;20045;-73
2024/01/15 15:05:16;;;;;;;12.30;11.32;;;;;;;-0.11;100.00;99519.53;10196977;28;20382;-73
2024/01/15 15:10:14;;;;;;;13.02;11.85;;;;;;;-0.22;100.00;99527.63;10198538;28;20052;-73
2024/01/15 15:15:11;;;;;;;12.88;11.98;;;;;;;-0.35;100.00;99520.16;10197202;28;20046;-72
2024/01/15 15:20:13;;;;;;;13.70;12.80;;;;;;;-0.41;100.00;99529.31;10198270;28;20049;-73
2024/01/15 15:25:11;;;;;;;13.88;12.65;;;;;;;-0.52;100.00;99535.78;10197015;28;20042;-73
2024/01/15 15:30:08;;;;;;;14.48;13.10;;;;;;;-0.56;100.00;99542.78;10198078;28;20046;-73
2024/01/15 15:35:06;;;;;;;14.20;12.75;;;;;;;-0.58;100.00;99547.63;10197579;28;20046;-73
2024/01/15 15:40:08;;;;;;;14.02;13.13;;;;;;;-0.56;100.00;99542.78;10197171;28;20132;-73
2024/01/15 15:45:05;;;;;;;13.25;12.35;;;;;;;-0.56;100.00;99553.53;10197287;28;20077;-73
2024/01/15 15:50:01;;;;;;;14.63;13.60;;;;;;;-0.59;100.00;99559.44;10196504;28;20409;-73
2024/01/15 15:54:58;;;;;;;13.90;13.00;;;;;;;-0.59;100.00;99567.50;10196470;28;20086;-73
2024/01/15 15:59:55;;;;;;;14.13;13.02;;;;;;;-0.56;100.00;99580.38;10196526;28;20056;-72
2024/01/15 16:04:51;;;;;;;14.40;13.18;;;;;;;-0.61;100.00;99580.38;10194996;28;20045;-72
2024/01/15 16:09:48;;;;;;;15.63;14.18;;;;;;;-0.61;100.00;99583.06;10196977;28;20402;-73
2024/01/15 16:14:45;;;;;;;13.75;12.77;;;;;;;-0.69;100.00;99582.53;10195058;28;20056;-73
2024/01/15 16:19:41;;;;;;;14.57;13.38;;;;;;;-0.69;100.00;99576.38;10195102;28;20050;-73
2024/01/15 16:24:58;;;;;;;14.23;13.20;;;;;;;-0.75;100.00;99574.78;10189458;28;20088;-73
2024/01/15 16:29:59;;;;;;;21.85;13.73;;;;;;;-0.87;100.00;99575.06;10195343;28;20045;-73
2024/01/15 16:34:55;;;;;;;15.85;14.27;;;;;;;-0.85;100.00;99583.66;10195241;28;20421;-73
2024/01/15 16:39:52;;;;;;;15.43;14.05;;;;;;;-0.88;100.00;99573.47;10194289;28;20050;-72
2024/01/15 16:44:48;;;;;;;15.98;14.35;;;;;;;-0.91;100.00;99568.59;10194432;28;20509;-71
2024/01/15 16:49:45;;;;;;;16.52;14.82;;;;;;;-0.92;100.00;99577.75;10194786;28;20450;-72
2024/01/15 16:54:41;;;;;;;16.15;14.80;;;;;;;-0.94;100.00;99575.31;10194086;28;20049;-73
2024/01/15 16:59:38;;;;;;;15.85;14.40;;;;;;;-0.88;100.00;99584.19;10194670;28;20050;-73
2024/01/15 17:04:35;;;;;;;15.90;14.45;;;;;;;-0.86;100.00;99576.66;10193639;28;20045;-73
2024/01/15 17:09:31;;;;;;;15.32;13.85;;;;;;;-0.79;100.00;99587.13;10193917;28;20073;-73
2024/01/15 17:14:28;;;;;;;14.48;13.40;;;;;;;-0.73;100.00;99599.47;10192731;28;20560;-72
2024/01/15 17:19:26;;;;;;;16.02;14.40;;;;;;;-0.60;100.00;99600.78;10193545;28;20409;-72
2024/01/15 17:24:23;;;;;;;15.93;14.40;;;;;;;-0.55;100.00;99611.53;10193362;28;20090;-72
2024/01/15 17:29:20;;;;;;;15.98;14.43;;;;;;;-0.50;100.00;99611.50;10192614;28;20565;-72
2024/01/15 17:34:17;;;;;;;15.35;14.05;;;;;;;-0.47;100.00;99616.34;10192791;28;20505;-73
2024/01/15 17:39:14;;;;;;;16.13;14.52;;;;;;;-0.60;100.00;99614.19;10192455;28;20049;-72
2024/01/15 17:44:12;;;;;;;16.08;14.63;;;;;;;-0.62;100.00;99635.16;10192406;28;20412;-72
2024/01/15 17:49:09;;;;;;;18.33;16.55;;;;;;;-0.74;100.00;99638.94;10191639;28;20110;-72
2024/01/15 17:54:08;;;;;;;17.60;15.82;;;;;;;-0.72;100.00;99636.78;10191964;28;20045;-72
2024/01/15 17:59:06;;;;;;;17.63;15.70;;;;;;;-0.65;100.00;99642.69;10191701;28;20095;-72
2024/01/15 18:04:05;;;;;;;23.88;16.52;;;;;;;-0.51;100.00;99647.47;10192193;28;20066;-72
2024/01/15 18:09:02;;;;;;;19.48;17.50;;;;;;;-0.50;100.00;99659.84;10191775;28;20064;-72
2024/01/15 18:13:59;;;;;;;17.85;16.13;;;;;;;-0.39;100.00;99672.19;10191156;28;20042;-72
2024/01/15 18:18:55;;;;;;;15.55;14.02;;;;;;;-0.34;100.00;99690.19;10193436;28;20041;-72
2024/01/15 18:23:52;;;;;;;14.48;13.25;;;;;;;-0.37;100.00;99702.28;10199092;28;20136;-72
2024/01/15 18:28:48;;;;;;;15.48;14.00;;;;;;;-0.36;100.00;99709.25;10199793;28;20054;-72
2024/01/15 18:33:45;;;;;;;15.50;13.93;;;;;;;-0.40;100.00;99708.16;10198257;28;20469;-72
2024/01/15 18:38:42;;;;;;;13.55;12.32;;;;;;;-0.41;100.00;99717.31;10198852;28;20479;-72
2024/01/15 18:43:38;;;;;;;11.93;10.60;;;;;;;-0.51;100.00;99728.88;10198982;28;20061;-72
2024/01/15 18:48:34;;;;;;;11.02;10.25;;;;;;;-0.54;100.00;99742.00;10200373;28;20494;-72
2024/01/15 18:53:31;;;;;;;11.23;10.35;;;;;;;-0.49;100.00;99739.31;10191226;28;20049;-72
2024/01/15 18:58:28;;;;;;;10.95;10.00;;;;;;;-0.44;100.00;99744.72;10198902;28;20768;-72
2024/01/15 19:03:24;;;;;;;10.35;9.63;;;;;;;-0.37;100.00;99734.50;10198418;28;20061;-72
2024/01/15 19:08:21;;;;;;;11.25;10.02;;;;;;;-0.36;100.00;99744.16;10198741;28;20050;-72
2024/01/15 19:13:17;;;;;;;10.30;9.50;;;;;;;-0.33;100.00;99751.69;10198309;28;20501;-72
2024/01/15 19:18:14;;;;;;;10.00;9.00;;;;;;;-0.35;100.00;99737.72;10197487;28;20600;-72
2024/01/15 19:23:11;;;;;;;9.85;9.10;;;;;;;-0.34;100.00;99744.72;10198258;28;20129;-72
2024/01/15 19:28:07;;;;;;;9.88;8.98;;;;;;;-0.32;100.00;99721.06;10197314;28;20084;-73
2024/01/15 19:33:04;;;;;;;10.88;9.73;;;;;;;-0.42;100.00;99721.06;10198055;28;20042;-72
2024/01/15 19:38:03;;;;;;;11.63;10.50;;;;;;;-0.47;100.00;99729.91;10196948;28;20053;-72
2024/01/15 19:43:01;;;;;;;11.52;10.35;;;;;;;-0.42;100.00;99731.81;10198047;28;20069;-72
2024/01/15 19:47:58;;;;;;;10.38;9.57;;;;;;;-0.44;100.00;99740.16;10196309;28;20126;-72
2024/01/15 19:52:55;;;;;;;9.95;9.13;;;;;;;-0.49;100.00;99715.16;10197200;28;20049;-72
2024/01/15 19:57:51;;;;;;;10.88;9.95;;;;;;;-0.42;100.00;99726.44;10195370;28;20497;-72
2024/01/15 20:02:48;;;;;;;10.73;9.82;;;;;;;-0.51;100.00;99717.28;10194909;28;20050;-72
2024/01/15 20:07:44;;;;;;;10.23;9.32;;;;;;;-0.49;100.00;99731.28;10195160;28;20052;-72
2024/01/15 20:12:41;;;;;;;9.70;9.00;;;;;;;-0.40;100.00;99739.59;10196702;28;20054;-73
2024/01/15 20:17:37;;;;;;;10.57;9.68;;;;;;;-0.38;100.00;99749.00;10187740;28;20073;-72
2024/01/15 20:22:34;;;;;;;10.50;9.57;;;;;;;-0.40;100.00;99745.78;10191879;28;20132;-72
2024/01/15 20:27:30;;;;;;;11.23;10.10;;;;;;;-0.34;100.00;99755.44;10186968;28;20520;-72
2024/01/15 20:32:27;;;;;;;11.23;10.32;;;;;;;-0.27;100.00;99782.03;10195560;28;20076;-72
2024/01/15 20:37:24;;;;;;;12.38;11.13;;;;;;;-0.36;100.00;99779.09;10194634;28;20129;-72
2024/01/15 20:42:20;;;;;;;11.98;11.15;;;;;;;-0.41;100.00;99797.88;10194983;28;20404;-72
2024/01/15 20:47:17;;;;;;;12.23;11.20;;;;;;;-0.37;100.00;99811.56;10193358;28;20042;-72
2024/01/15 20:52:13;;;;;;;11.93;10.73;;;;;;;-0.50;100.00;99799.50;10194625;28;20077;-72
2024/01/15 20:57:09;;;;;;;12.00;11.10;;;;;;;-0.39;100.00;99833.34;10193102;28;20124;-72
2024/01/15 21:02:06;;;;;;;11.35;10.25;;;;;;;-0.46;100.00;99843.53;10194835;28;20042;-72
2024/01/15 21:07:07;;;;;;;10.90;9.90;;;;;;;-0.37;100.00;99843.81;10192891;28;20496;-72
2024/01/15 21:12:04;;;;;;;10.30;9.40;;;;;;;-0.44;100.00;99861.00;10194253;28;20050;-73
2024/01/15 21:17:04;;;;;;;10.05;9.25;;;;;;;-0.44;100.00;99873.63;10193504;28;20045;-73
2024/01/15 21:22:00;;;;;;;9.50;8.88;;;;;;;-0.56;100.00;99881.91;10193049;28;20088;-73
2024/01/15 21:26:58;;;;;;;9.45;8.60;;;;;;;-0.54;100.00;99874.38;10193104;28;20042;-73
2024/01/15 21:31:54;;;;;;;10.40;9.55;;;;;;;-0.61;100.00;99894.50;10193337;28;20049;-73
2024/01/15 21:36:51;;;;;;;10.48;9.68;;;;;;;-0.48;100.00;99894.03;10191995;28;20050;-73
2024/01/15 21:41:49;;;;;;;10.57;9.73;;;;;;;-0.51;100.00;99890.00;10193350;28;20068;-73
2024/01/15 21:46:45;;;;;;;10.85;9.60;;;;;;;-0.49;100.00;99905.81;10191964;28;20152;-73
2024/01/15 21:51:42;;;;;;;11.07;10.07;;;;;;;-0.50;100.00;99917.66;10193297;28;20049;-73
2024/01/15 21:56:38;;;;;;;11.93;10.65;;;;;;;-0.47;100.00;99927.84;10191778;28;20046;-73
2024/01/15 22:01:35;;;;;;;12.35;9.73;;;;;;;-0.47;100.00;99949.34;10192303;28;20049;-73
2024/01/15 22:06:35;;;;;;;10.52;9.68;;;;;;;-0.57;100.00;99954.69;10192606;28;20042;-73
2024/01/15 22:11:32;;;;;;;11.57;10.68;;;;;;;-0.68;100.00;99976.09;10192731;28;20505;-73
2024/01/15 22:16:29;;;;;;;9.93;9.05;;;;;;;-0.76;100.00;99989.22;10192547;28;20096;-72
2024/01/15 22:21:25;;;;;;;9.77;8.77;;;;;;;-0.97;100.00;100005.22;10192441;28;20056;-73
2024/01/15 22:26:22;;;;;;;9.75;8.95;;;;;;;-0.76;100.00;100016.88;10192234;28;20045;-73
2024/01/15 22:31:18;;;;;;;9.20;7.82;;;;;;;-0.71;100.00;100029.53;10192083;28;20068;-73
2024/01/15 22:36:15;;;;;;;8.30;7.70;;;;;;;-0.80;100.00;100029.19;10191940;28;20658;-73
2024/01/15 22:41:11;;;;;;;8.32;7.53;;;;;;;-0.73;100.00;100048.56;10191182;28;20050;-73